HVN562 VVTS-VVCR
Flight info
| Callsign | HVN562 |
|---|---|
| Flight time | N/A |
| Altitude | 27000 |
| Route | BIXEX5C BIXEX W15 BANKE BANKE1A |
| Aircraft | B78X/H-SDE1E2E3FGHIJ2J3J4J5M1RWXY/LB1D1 |
Departure
| Time | 2026-05-06 14:20 |
|---|---|
| Airport | Tan Son Nhat International Airport (VVTS) |
Arrival
| Time | N/A |
|---|---|
| Airport | Cam Ranh International Airport / Cam Ranh Air Base (VVCR) |
| Time | Latitude | Longitude | Altitude | Speed | Heading |
|---|---|---|---|---|---|
| 2026-05-06 13:46 | 10.81175 | 106.65089 | 42 ft | 0 kts | 159° |
| 2026-05-06 14:02 | 10.81191 | 106.65083 | 40 ft | 6 kts | 159° |
| 2026-05-06 14:03 | 10.81216 | 106.65073 | 39 ft | 6 kts | 159° |
| 2026-05-06 14:03 | 10.81240 | 106.65064 | 42 ft | 5 kts | 159° |
| 2026-05-06 14:03 | 10.81260 | 106.65057 | 40 ft | 6 kts | 175° |
| 2026-05-06 14:03 | 10.81281 | 106.65057 | 39 ft | 5 kts | 189° |
| 2026-05-06 14:04 | 10.81304 | 106.65059 | 39 ft | 6 kts | 163° |
| 2026-05-06 14:04 | 10.81322 | 106.65052 | 43 ft | 6 kts | 158° |
| 2026-05-06 14:04 | 10.81344 | 106.65043 | 43 ft | 6 kts | 140° |
| 2026-05-06 14:04 | 10.81356 | 106.65034 | 41 ft | 6 kts | 91° |
| 2026-05-06 14:05 | 10.81351 | 106.65014 | 38 ft | 6 kts | 63° |
| 2026-05-06 14:05 | 10.81341 | 106.64993 | 42 ft | 6 kts | 69° |
| 2026-05-06 14:05 | 10.81333 | 106.64971 | 42 ft | 1 kts | 69° |
| 2026-05-06 14:08 | 10.81340 | 106.64994 | 43 ft | 8 kts | 73° |
| 2026-05-06 14:09 | 10.81349 | 106.65027 | 43 ft | 0 kts | 72° |
| 2026-05-06 14:09 | 10.81356 | 106.65031 | 43 ft | 2 kts | 39° |
| 2026-05-06 14:09 | 10.81370 | 106.65031 | 60 ft | 2 kts | 357° |
| 2026-05-06 14:09 | 10.81398 | 106.65022 | 43 ft | 9 kts | 346° |
| 2026-05-06 14:10 | 10.81451 | 106.65036 | 43 ft | 7 kts | 32° |
| 2026-05-06 14:10 | 10.81480 | 106.65070 | 43 ft | 6 kts | 60° |
| 2026-05-06 14:10 | 10.81498 | 106.65113 | 43 ft | 7 kts | 69° |
| 2026-05-06 14:10 | 10.81516 | 106.65160 | 43 ft | 7 kts | 67° |
| 2026-05-06 14:11 | 10.81535 | 106.65212 | 43 ft | 8 kts | 68° |
| 2026-05-06 14:11 | 10.81559 | 106.65276 | 43 ft | 12 kts | 70° |
| 2026-05-06 14:11 | 10.81589 | 106.65358 | 43 ft | 13 kts | 73° |
| 2026-05-06 14:11 | 10.81624 | 106.65445 | 42 ft | 14 kts | 71° |
| 2026-05-06 14:12 | 10.81660 | 106.65537 | 43 ft | 14 kts | 68° |
| 2026-05-06 14:12 | 10.81695 | 106.65635 | 43 ft | 15 kts | 70° |
| 2026-05-06 14:12 | 10.81730 | 106.65738 | 43 ft | 15 kts | 67° |
| 2026-05-06 14:12 | 10.81770 | 106.65835 | 43 ft | 14 kts | 68° |
| 2026-05-06 14:13 | 10.81807 | 106.65925 | 43 ft | 14 kts | 68° |
| 2026-05-06 14:13 | 10.81840 | 106.66016 | 42 ft | 14 kts | 69° |
| 2026-05-06 14:13 | 10.81873 | 106.66108 | 43 ft | 14 kts | 66° |
| 2026-05-06 14:13 | 10.81910 | 106.66202 | 43 ft | 18 kts | 69° |
| 2026-05-06 14:14 | 10.81972 | 106.66367 | 43 ft | 28 kts | 69° |
| 2026-05-06 14:14 | 10.82029 | 106.66513 | 42 ft | 27 kts | 69° |
| 2026-05-06 14:14 | 10.82094 | 106.66690 | 42 ft | 26 kts | 68° |
| 2026-05-06 14:14 | 10.82147 | 106.66828 | 42 ft | 0 kts | 66° |
| 2026-05-06 14:15 | 10.82150 | 106.66836 | 42 ft | 6 kts | 66° |
| 2026-05-06 14:15 | 10.82160 | 106.66862 | 42 ft | 0 kts | 69° |
| 2026-05-06 14:15 | 10.82163 | 106.66870 | 42 ft | 5 kts | 71° |
| 2026-05-06 14:16 | 10.82174 | 106.66902 | 42 ft | 0 kts | 70° |
| 2026-05-06 14:16 | 10.82186 | 106.66932 | 42 ft | 10 kts | 69° |
| 2026-05-06 14:16 | 10.82220 | 106.66989 | 42 ft | 6 kts | 39° |
| 2026-05-06 14:16 | 10.82254 | 106.67001 | 42 ft | 3 kts | 7° |
| 2026-05-06 14:17 | 10.82259 | 106.66999 | 42 ft | 0 kts | 352° |
| 2026-05-06 14:17 | 10.82274 | 106.66995 | 42 ft | 4 kts | 343° |
| 2026-05-06 14:17 | 10.82299 | 106.66982 | 42 ft | 3 kts | 326° |
| 2026-05-06 14:18 | 10.82322 | 106.66966 | 42 ft | 5 kts | 325° |
| 2026-05-06 14:18 | 10.82341 | 106.66944 | 42 ft | 3 kts | 300° |
| 2026-05-06 14:18 | 10.82347 | 106.66922 | 42 ft | 3 kts | 282° |
| 2026-05-06 14:18 | 10.82346 | 106.66901 | 42 ft | 2 kts | 259° |
| 2026-05-06 14:19 | 10.82345 | 106.66899 | 42 ft | 0 kts | 257° |
| 2026-05-06 14:19 | 10.82337 | 106.66868 | 41 ft | 29 kts | 253° |
| 2026-05-06 14:19 | 10.82162 | 106.66362 | 41 ft | 123 kts | 250° |
| 2026-05-06 14:20 | 10.81742 | 106.65310 | 304 ft | 177 kts | 248° |
| 2026-05-06 14:20 | 10.81351 | 106.64191 | 1568 ft | 164 kts | 249° |
| 2026-05-06 14:20 | 10.80875 | 106.62973 | 2109 ft | 202 kts | 245° |
| 2026-05-06 14:20 | 10.80343 | 106.61612 | 2854 ft | 220 kts | 247° |
| 2026-05-06 14:21 | 10.79774 | 106.60095 | 3684 ft | 233 kts | 248° |
| 2026-05-06 14:21 | 10.79190 | 106.58529 | 4742 ft | 237 kts | 248° |
| 2026-05-06 14:21 | 10.78564 | 106.56960 | 5820 ft | 241 kts | 242° |
| 2026-05-06 14:21 | 10.77347 | 106.55774 | 6932 ft | 239 kts | 206° |
| 2026-05-06 14:22 | 10.75770 | 106.55354 | 7933 ft | 238 kts | 173° |
| 2026-05-06 14:22 | 10.74144 | 106.55829 | 8814 ft | 247 kts | 145° |
| 2026-05-06 14:22 | 10.72769 | 106.56830 | 8952 ft | 244 kts | 142° |
| 2026-05-06 14:22 | 10.71370 | 106.57835 | 8980 ft | 244 kts | 143° |
| 2026-05-06 14:23 | 10.69977 | 106.58806 | 8987 ft | 242 kts | 143° |
| 2026-05-06 14:23 | 10.68600 | 106.59766 | 8960 ft | 243 kts | 143° |
| 2026-05-06 14:23 | 10.67209 | 106.60742 | 8976 ft | 243 kts | 143° |
| 2026-05-06 14:23 | 10.65833 | 106.61712 | 8981 ft | 242 kts | 141° |
| 2026-05-06 14:24 | 10.64752 | 106.62966 | 8993 ft | 236 kts | 112° |
| 2026-05-06 14:24 | 10.64347 | 106.64601 | 8988 ft | 248 kts | 85° |
| 2026-05-06 14:24 | 10.64739 | 106.66416 | 9020 ft | 276 kts | 71° |
| 2026-05-06 14:24 | 10.65435 | 106.68254 | 9004 ft | 281 kts | 68° |
| 2026-05-06 14:25 | 10.66052 | 106.69757 | 9000 ft | 281 kts | 68° |
| 2026-05-06 14:25 | 10.66772 | 106.71626 | 8994 ft | 282 kts | 69° |
| 2026-05-06 14:25 | 10.67457 | 106.73486 | 9061 ft | 284 kts | 70° |
| 2026-05-06 14:25 | 10.68162 | 106.75370 | 9604 ft | 287 kts | 69° |
| 2026-05-06 14:26 | 10.68802 | 106.77055 | 10491 ft | 294 kts | 69° |
| 2026-05-06 14:26 | 10.69579 | 106.79109 | 10967 ft | 328 kts | 69° |
| 2026-05-06 14:26 | 10.70425 | 106.81353 | 11007 ft | 345 kts | 69° |
| 2026-05-06 14:26 | 10.71248 | 106.83587 | 11623 ft | 337 kts | 72° |
| 2026-05-06 14:27 | 10.71538 | 106.85990 | 12388 ft | 352 kts | 89° |
| 2026-05-06 14:27 | 10.71554 | 106.88542 | 13165 ft | 367 kts | 89° |
| 2026-05-06 14:27 | 10.71546 | 106.91170 | 13914 ft | 380 kts | 90° |
| 2026-05-06 14:27 | 10.71537 | 106.93886 | 14609 ft | 392 kts | 90° |
| 2026-05-06 14:28 | 10.71541 | 106.96687 | 15321 ft | 402 kts | 89° |
| 2026-05-06 14:28 | 10.71547 | 106.99614 | 16056 ft | 412 kts | 90° |
| 2026-05-06 14:28 | 10.71545 | 107.02511 | 16791 ft | 419 kts | 90° |
| 2026-05-06 14:28 | 10.71542 | 107.05491 | 17543 ft | 425 kts | 90° |
| 2026-05-06 14:29 | 10.71542 | 107.08501 | 18288 ft | 430 kts | 90° |
| 2026-05-06 14:29 | 10.71543 | 107.11603 | 18970 ft | 434 kts | 90° |
| 2026-05-06 14:29 | 10.71542 | 107.14668 | 19635 ft | 437 kts | 90° |
| 2026-05-06 14:29 | 10.71539 | 107.17785 | 20339 ft | 440 kts | 90° |
| 2026-05-06 14:30 | 10.71537 | 107.20865 | 21041 ft | 442 kts | 90° |
| 2026-05-06 14:30 | 10.71536 | 107.24035 | 21771 ft | 444 kts | 90° |
| 2026-05-06 14:30 | 10.71603 | 107.27136 | 22502 ft | 446 kts | 84° |
| 2026-05-06 14:30 | 10.72270 | 107.30265 | 23295 ft | 448 kts | 72° |
| 2026-05-06 14:31 | 10.73541 | 107.33159 | 23980 ft | 450 kts | 60° |
| 2026-05-06 14:31 | 10.75356 | 107.35716 | 24651 ft | 452 kts | 49° |
| 2026-05-06 14:31 | 10.77657 | 107.37947 | 25339 ft | 453 kts | 43° |
| 2026-05-06 14:31 | 10.79995 | 107.40106 | 26019 ft | 453 kts | 43° |
| 2026-05-06 14:32 | 10.82309 | 107.42230 | 26663 ft | 455 kts | 43° |
| 2026-05-06 14:32 | 10.84686 | 107.44393 | 26982 ft | 465 kts | 43° |
| 2026-05-06 14:32 | 10.87140 | 107.46632 | 27001 ft | 481 kts | 43° |
| 2026-05-06 14:32 | 10.89664 | 107.48945 | 27008 ft | 495 kts | 43° |
| 2026-05-06 14:33 | 10.92282 | 107.51347 | 27017 ft | 507 kts | 43° |
| 2026-05-06 14:33 | 10.94921 | 107.53759 | 27020 ft | 518 kts | 43° |
| 2026-05-06 14:33 | 10.97606 | 107.56213 | 27023 ft | 527 kts | 43° |
| 2026-05-06 14:33 | 11.00378 | 107.58753 | 27021 ft | 536 kts | 43° |
| 2026-05-06 14:34 | 11.03188 | 107.61330 | 27021 ft | 544 kts | 43° |
| 2026-05-06 14:34 | 11.06009 | 107.63915 | 27027 ft | 547 kts | 43° |
| 2026-05-06 14:34 | 11.08778 | 107.66452 | 27031 ft | 537 kts | 43° |
| 2026-05-06 14:34 | 11.11030 | 107.68517 | 27028 ft | 541 kts | 43° |
| 2026-05-06 14:35 | 11.13824 | 107.71079 | 27032 ft | 538 kts | 43° |
| 2026-05-06 14:35 | 11.16630 | 107.73653 | 27037 ft | 540 kts | 43° |
| 2026-05-06 14:35 | 11.19399 | 107.76194 | 27044 ft | 539 kts | 43° |
| 2026-05-06 14:35 | 11.21928 | 107.78515 | 27039 ft | 539 kts | 43° |
| 2026-05-06 14:36 | 11.24681 | 107.81043 | 27048 ft | 539 kts | 43° |
| 2026-05-06 14:36 | 11.27493 | 107.83624 | 27057 ft | 540 kts | 43° |
| 2026-05-06 14:36 | 11.30281 | 107.86185 | 27052 ft | 540 kts | 43° |
| 2026-05-06 14:36 | 11.33074 | 107.88751 | 27053 ft | 540 kts | 43° |
| 2026-05-06 14:37 | 11.35859 | 107.91312 | 27057 ft | 540 kts | 43° |
| 2026-05-06 14:37 | 11.38651 | 107.93878 | 27062 ft | 539 kts | 43° |
| 2026-05-06 14:37 | 11.41436 | 107.96438 | 27063 ft | 540 kts | 43° |
| 2026-05-06 14:37 | 11.44232 | 107.99011 | 27066 ft | 540 kts | 43° |
| 2026-05-06 14:38 | 11.47009 | 108.01566 | 27068 ft | 540 kts | 43° |
| 2026-05-06 14:38 | 11.49808 | 108.04142 | 27071 ft | 541 kts | 43° |
| 2026-05-06 14:38 | 11.52605 | 108.06716 | 27075 ft | 541 kts | 43° |
| 2026-05-06 14:38 | 11.55398 | 108.09289 | 27073 ft | 541 kts | 43° |
| 2026-05-06 14:39 | 11.58214 | 108.11883 | 27077 ft | 541 kts | 43° |
| 2026-05-06 14:39 | 11.60859 | 108.14636 | 27080 ft | 539 kts | 52° |
| 2026-05-06 14:39 | 11.63065 | 108.17739 | 27079 ft | 538 kts | 56° |
| 2026-05-06 14:39 | 11.65223 | 108.20854 | 27084 ft | 539 kts | 56° |
| 2026-05-06 14:40 | 11.67380 | 108.23952 | 27088 ft | 538 kts | 55° |
| 2026-05-06 14:40 | 11.69535 | 108.27046 | 27090 ft | 539 kts | 55° |
| 2026-05-06 14:40 | 11.71698 | 108.30162 | 27097 ft | 539 kts | 56° |
| 2026-05-06 14:40 | 11.73882 | 108.33339 | 27098 ft | 538 kts | 57° |
| 2026-05-06 14:41 | 11.75623 | 108.36658 | 27107 ft | 536 kts | 68° |
| 2026-05-06 14:41 | 11.76767 | 108.40269 | 27102 ft | 535 kts | 75° |
| 2026-05-06 14:41 | 11.77765 | 108.43982 | 27106 ft | 535 kts | 75° |
| 2026-05-06 14:41 | 11.78768 | 108.47581 | 26562 ft | 536 kts | 75° |
| 2026-05-06 14:42 | 11.79820 | 108.51257 | 25636 ft | 525 kts | 74° |
| 2026-05-06 14:42 | 11.80473 | 108.53553 | 25020 ft | 502 kts | 75° |
| 2026-05-06 14:42 | 11.81684 | 108.57943 | 23817 ft | 466 kts | 75° |
| 2026-05-06 14:42 | 11.82539 | 108.61054 | 22814 ft | 445 kts | 75° |
| 2026-05-06 14:43 | 11.83382 | 108.64064 | 21799 ft | 439 kts | 75° |
| 2026-05-06 14:43 | 11.84220 | 108.67029 | 21018 ft | 430 kts | 75° |
| 2026-05-06 14:43 | 11.84775 | 108.68980 | 20818 ft | 441 kts | 75° |
| 2026-05-06 14:43 | 11.85626 | 108.71981 | 20493 ft | 431 kts | 75° |
| 2026-05-06 14:44 | 11.86458 | 108.74931 | 20168 ft | 429 kts | 75° |
| 2026-05-06 14:44 | 11.86844 | 108.76302 | 20026 ft | 429 kts | 75° |
| 2026-05-06 14:44 | 11.87663 | 108.79207 | 19706 ft | 428 kts | 75° |
| 2026-05-06 14:45 | 11.89316 | 108.85057 | 19075 ft | 424 kts | 75° |
| 2026-05-06 14:45 | 11.90070 | 108.87588 | 18801 ft | 422 kts | 70° |